sensor_id;sensor_type;location;lat;lon;timestamp;pressure;altitude;pressure_sealevel;temperature
42197;BMP280;27866;48.146;17.098;2023-07-08T00:01:49;100056.72;;;24.42
42197;BMP280;27866;48.146;17.098;2023-07-08T00:06:00;100060.53;;;24.39
42197;BMP280;27866;48.146;17.098;2023-07-08T00:10:22;100063.19;;;24.39
42197;BMP280;27866;48.146;17.098;2023-07-08T00:14:33;100056.41;;;24.37
42197;BMP280;27866;48.146;17.098;2023-07-08T00:18:45;100061.25;;;24.34
42197;BMP280;27866;48.146;17.098;2023-07-08T00:22:56;100066.94;;;24.31
42197;BMP280;27866;48.146;17.098;2023-07-08T00:27:12;100064.47;;;24.29
42197;BMP280;27866;48.146;17.098;2023-07-08T00:31:24;100063.19;;;24.25
42197;BMP280;27866;48.146;17.098;2023-07-08T00:35:41;100058.69;;;24.26
42197;BMP280;27866;48.146;17.098;2023-07-08T00:39:52;100070.66;;;24.22
42197;BMP280;27866;48.146;17.098;2023-07-08T00:44:04;100069.19;;;24.20
42197;BMP280;27866;48.146;17.098;2023-07-08T00:52:31;100072.75;;;24.12
42197;BMP280;27866;48.146;17.098;2023-07-08T00:56:55;100074.00;;;24.16
42197;BMP280;27866;48.146;17.098;2023-07-08T01:01:08;100069.38;;;24.18
42197;BMP280;27866;48.146;17.098;2023-07-08T01:05:22;100074.00;;;24.16
42197;BMP280;27866;48.146;17.098;2023-07-08T01:09:41;100065.81;;;24.11
42197;BMP280;27866;48.146;17.098;2023-07-08T01:13:53;100072.66;;;24.06
42197;BMP280;27866;48.146;17.098;2023-07-08T01:18:05;100078.66;;;24.00
42197;BMP280;27866;48.146;17.098;2023-07-08T01:22:16;100071.25;;;23.96
42197;BMP280;27866;48.146;17.098;2023-07-08T01:26:27;100069.50;;;23.89
42197;BMP280;27866;48.146;17.098;2023-07-08T01:30:43;100059.81;;;23.81
42197;BMP280;27866;48.146;17.098;2023-07-08T01:34:57;100059.53;;;23.77
42197;BMP280;27866;48.146;17.098;2023-07-08T01:39:13;100064.13;;;23.75
42197;BMP280;27866;48.146;17.098;2023-07-08T01:43:25;100060.69;;;23.74
42197;BMP280;27866;48.146;17.098;2023-07-08T01:47:36;100056.44;;;23.66
42197;BMP280;27866;48.146;17.098;2023-07-08T01:51:47;100052.69;;;23.60
42197;BMP280;27866;48.146;17.098;2023-07-08T01:55:59;100044.66;;;23.54
42197;BMP280;27866;48.146;17.098;2023-07-08T02:00:12;100044.38;;;23.49
42197;BMP280;27866;48.146;17.098;2023-07-08T02:04:28;100042.25;;;23.45
42197;BMP280;27866;48.146;17.098;2023-07-08T02:08:41;100044.25;;;23.43
42197;BMP280;27866;48.146;17.098;2023-07-08T02:12:52;100042.03;;;23.32
42197;BMP280;27866;48.146;17.098;2023-07-08T02:17:03;100044.41;;;23.27
42197;BMP280;27866;48.146;17.098;2023-07-08T02:21:16;100044.72;;;23.24
42197;BMP280;27866;48.146;17.098;2023-07-08T02:25:29;100050.66;;;23.26
42197;BMP280;27866;48.146;17.098;2023-07-08T02:29:40;100038.38;;;23.33
42197;BMP280;27866;48.146;17.098;2023-07-08T02:33:52;100042.88;;;23.33
42197;BMP280;27866;48.146;17.098;2023-07-08T02:38:04;100052.16;;;23.29
42197;BMP280;27866;48.146;17.098;2023-07-08T02:42:15;100052.47;;;23.26
42197;BMP280;27866;48.146;17.098;2023-07-08T02:46:27;100048.66;;;23.28
42197;BMP280;27866;48.146;17.098;2023-07-08T02:50:38;100054.78;;;23.29
42197;BMP280;27866;48.146;17.098;2023-07-08T02:54:50;100053.69;;;23.23
42197;BMP280;27866;48.146;17.098;2023-07-08T02:59:01;100053.69;;;23.23
42197;BMP280;27866;48.146;17.098;2023-07-08T03:03:12;100059.59;;;23.25
42197;BMP280;27866;48.146;17.098;2023-07-08T03:07:23;100055.66;;;23.22
42197;BMP280;27866;48.146;17.098;2023-07-08T03:11:35;100057.31;;;23.23
42197;BMP280;27866;48.146;17.098;2023-07-08T03:15:46;100055.66;;;23.22
42197;BMP280;27866;48.146;17.098;2023-07-08T03:19:57;100066.94;;;23.16
42197;BMP280;27866;48.146;17.098;2023-07-08T03:24:12;100068.56;;;23.17
42197;BMP280;27866;48.146;17.098;2023-07-08T03:28:27;100072.50;;;23.21
42197;BMP280;27866;48.146;17.098;2023-07-08T03:32:39;100075.84;;;23.15
42197;BMP280;27866;48.146;17.098;2023-07-08T03:36:50;100078.19;;;23.10
42197;BMP280;27866;48.146;17.098;2023-07-08T03:41:04;100070.75;;;23.13
42197;BMP280;27866;48.146;17.098;2023-07-08T03:45:15;100075.84;;;23.15
42197;BMP280;27866;48.146;17.098;2023-07-08T03:49:26;100078.03;;;23.11
42197;BMP280;27866;48.146;17.098;2023-07-08T03:53:39;100079.97;;;23.17
42197;BMP280;27866;48.146;17.098;2023-07-08T03:57:51;100076.44;;;23.24
42197;BMP280;27866;48.146;17.098;2023-07-08T04:02:03;100086.69;;;23.27
42197;BMP280;27866;48.146;17.098;2023-07-08T04:06:14;100087.94;;;23.31
42197;BMP280;27866;48.146;17.098;2023-07-08T04:10:26;100091.84;;;23.43
42197;BMP280;27866;48.146;17.098;2023-07-08T04:14:37;100087.03;;;23.46
42197;BMP280;27866;48.146;17.098;2023-07-08T04:18:48;100080.56;;;23.49
42197;BMP280;27866;48.146;17.098;2023-07-08T04:23:01;100081.50;;;23.55
42197;BMP280;27866;48.146;17.098;2023-07-08T04:27:16;100082.44;;;23.62
42197;BMP280;27866;48.146;17.098;2023-07-08T04:31:28;100087.03;;;23.68
42197;BMP280;27866;48.146;17.098;2023-07-08T04:35:40;100087.28;;;23.73
42197;BMP280;27866;48.146;17.098;2023-07-08T04:39:51;100091.13;;;23.78
42197;BMP280;27866;48.146;17.098;2023-07-08T04:44:02;100099.63;;;23.88
42197;BMP280;27866;48.146;17.098;2023-07-08T04:48:14;100104.03;;;23.95
42197;BMP280;27866;48.146;17.098;2023-07-08T04:52:25;100103.56;;;24.06
42197;BMP280;27866;48.146;17.098;2023-07-08T04:56:38;100106.53;;;24.10
42197;BMP280;27866;48.146;17.098;2023-07-08T05:00:49;100110.53;;;24.21
42197;BMP280;27866;48.146;17.098;2023-07-08T05:05:00;100101.88;;;24.26
42197;BMP280;27866;48.146;17.098;2023-07-08T05:09:12;100105.72;;;24.38
42197;BMP280;27866;48.146;17.098;2023-07-08T05:13:23;100111.22;;;24.51
42197;BMP280;27866;48.146;17.098;2023-07-08T05:17:34;100110.16;;;24.59
42197;BMP280;27866;48.146;17.098;2023-07-08T05:21:45;100110.88;;;24.68
42197;BMP280;27866;48.146;17.098;2023-07-08T05:26:01;100116.47;;;24.72
42197;BMP280;27866;48.146;17.098;2023-07-08T05:30:15;100115.28;;;24.75
42197;BMP280;27866;48.146;17.098;2023-07-08T05:34:26;100112.69;;;24.81
42197;BMP280;27866;48.146;17.098;2023-07-08T05:38:38;100110.03;;;24.81
42197;BMP280;27866;48.146;17.098;2023-07-08T05:42:49;100111.31;;;24.85
42197;BMP280;27866;48.146;17.098;2023-07-08T05:47:00;100120.28;;;24.84
42197;BMP280;27866;48.146;17.098;2023-07-08T05:51:11;100119.56;;;24.90
42197;BMP280;27866;48.146;17.098;2023-07-08T05:55:23;100123.84;;;25.05
42197;BMP280;27866;48.146;17.098;2023-07-08T05:59:34;100126.94;;;24.94
42197;BMP280;27866;48.146;17.098;2023-07-08T06:03:46;100118.00;;;24.81
42197;BMP280;27866;48.146;17.098;2023-07-08T06:07:57;100115.31;;;25.09
42197;BMP280;27866;48.146;17.098;2023-07-08T06:12:08;100118.59;;;25.25
42197;BMP280;27866;48.146;17.098;2023-07-08T06:16:19;100114.66;;;25.35
42197;BMP280;27866;48.146;17.098;2023-07-08T06:20:30;100117.16;;;25.43
42197;BMP280;27866;48.146;17.098;2023-07-08T06:24:41;100114.66;;;25.56
42197;BMP280;27866;48.146;17.098;2023-07-08T06:28:53;100120.13;;;25.68
42197;BMP280;27866;48.146;17.098;2023-07-08T06:33:04;100103.06;;;25.77
42197;BMP280;27866;48.146;17.098;2023-07-08T06:37:15;100105.13;;;25.81
42197;BMP280;27866;48.146;17.098;2023-07-08T06:41:27;100095.09;;;25.97
42197;BMP280;27866;48.146;17.098;2023-07-08T06:45:38;100093.34;;;26.10
42197;BMP280;27866;48.146;17.098;2023-07-08T06:49:49;100106.22;;;26.33
42197;BMP280;27866;48.146;17.098;2023-07-08T06:54:00;100094.22;;;26.37
42197;BMP280;27866;48.146;17.098;2023-07-08T06:58:15;100095.13;;;26.57
42197;BMP280;27866;48.146;17.098;2023-07-08T07:02:27;100094.13;;;26.64
42197;BMP280;27866;48.146;17.098;2023-07-08T07:06:38;100097.81;;;26.63
42197;BMP280;27866;48.146;17.098;2023-07-08T07:10:49;100099.00;;;26.87
42197;BMP280;27866;48.146;17.098;2023-07-08T07:15:00;100093.34;;;27.02
42197;BMP280;27866;48.146;17.098;2023-07-08T07:19:11;100094.34;;;29.34
42197;BMP280;27866;48.146;17.098;2023-07-08T07:23:22;100107.63;;;35.13
42197;BMP280;27866;48.146;17.098;2023-07-08T07:27:34;100081.63;;;33.32
42197;BMP280;27866;48.146;17.098;2023-07-08T07:31:47;100091.13;;;32.01
42197;BMP280;27866;48.146;17.098;2023-07-08T07:35:58;100087.75;;;31.66
42197;BMP280;27866;48.146;17.098;2023-07-08T07:40:10;100086.75;;;31.78
42197;BMP280;27866;48.146;17.098;2023-07-08T07:44:23;100087.78;;;30.85
42197;BMP280;27866;48.146;17.098;2023-07-08T07:48:35;100085.44;;;30.06
42197;BMP280;27866;48.146;17.098;2023-07-08T07:52:46;100086.41;;;29.88
42197;BMP280;27866;48.146;17.098;2023-07-08T07:56:57;100097.97;;;29.03
42197;BMP280;27866;48.146;17.098;2023-07-08T08:01:09;100100.53;;;28.67
42197;BMP280;27866;48.146;17.098;2023-07-08T08:05:20;100087.22;;;28.61
42197;BMP280;27866;48.146;17.098;2023-07-08T08:09:31;100090.50;;;28.69
42197;BMP280;27866;48.146;17.098;2023-07-08T08:13:42;100101.06;;;29.49
42197;BMP280;27866;48.146;17.098;2023-07-08T08:17:53;100098.84;;;33.09
42197;BMP280;27866;48.146;17.098;2023-07-08T08:22:04;100084.44;;;36.36
42197;BMP280;27866;48.146;17.098;2023-07-08T08:26:15;100078.06;;;33.04
42197;BMP280;27866;48.146;17.098;2023-07-08T08:30:27;100073.81;;;32.37
42197;BMP280;27866;48.146;17.098;2023-07-08T08:34:38;100079.53;;;31.21
42197;BMP280;27866;48.146;17.098;2023-07-08T08:38:49;100079.03;;;32.99
42197;BMP280;27866;48.146;17.098;2023-07-08T08:47:39;100081.25;;;31.44
42197;BMP280;27866;48.146;17.098;2023-07-08T08:51:49;100089.19;;;30.87
42197;BMP280;27866;48.146;17.098;2023-07-08T08:56:25;100089.91;;;31.29
42197;BMP280;27866;48.146;17.098;2023-07-08T09:05:01;100081.84;;;32.59
42197;BMP280;27866;48.146;17.098;2023-07-08T09:09:24;100067.75;;;32.41
42197;BMP280;27866;48.146;17.098;2023-07-08T09:13:38;100073.69;;;31.41
42197;BMP280;27866;48.146;17.098;2023-07-08T09:17:49;100081.16;;;32.63
42197;BMP280;27866;48.146;17.098;2023-07-08T09:26:27;100062.75;;;37.80
42197;BMP280;27866;48.146;17.098;2023-07-08T09:30:39;100084.00;;;41.26
42197;BMP280;27866;48.146;17.098;2023-07-08T09:35:02;100082.66;;;44.48
42197;BMP280;27866;48.146;17.098;2023-07-08T09:39:15;100076.44;;;46.35
42197;BMP280;27866;48.146;17.098;2023-07-08T09:43:36;100064.03;;;46.04
42197;BMP280;27866;48.146;17.098;2023-07-08T09:47:57;100061.56;;;46.60
42197;BMP280;27866;48.146;17.098;2023-07-08T09:52:11;100063.28;;;48.44
42197;BMP280;27866;48.146;17.098;2023-07-08T09:56:23;100050.69;;;49.94
42197;BMP280;27866;48.146;17.098;2023-07-08T10:00:39;100040.25;;;50.83
42197;BMP280;27866;48.146;17.098;2023-07-08T10:05:10;100035.38;;;51.55
42197;BMP280;27866;48.146;17.098;2023-07-08T10:09:24;100033.28;;;51.19
42197;BMP280;27866;48.146;17.098;2023-07-08T10:13:39;100020.25;;;50.29
42197;BMP280;27866;48.146;17.098;2023-07-08T10:17:51;100029.91;;;51.73
42197;BMP280;27866;48.146;17.098;2023-07-08T10:22:23;100014.78;;;51.86
42197;BMP280;27866;48.146;17.098;2023-07-08T10:26:37;100003.13;;;49.71
42197;BMP280;27866;48.146;17.098;2023-07-08T10:35:36;99999.72;;;52.02
42197;BMP280;27866;48.146;17.098;2023-07-08T10:53:26;100001.44;;;50.91
42197;BMP280;27866;48.146;17.098;2023-07-08T10:58:01;99993.38;;;51.31
42197;BMP280;27866;48.146;17.098;2023-07-08T11:11:03;99975.56;;;51.99
42197;BMP280;27866;48.146;17.098;2023-07-08T11:19:35;99969.28;;;52.20
42197;BMP280;27866;48.146;17.098;2023-07-08T11:23:52;99959.84;;;52.03
42197;BMP280;27866;48.146;17.098;2023-07-08T11:28:06;99970.81;;;53.05
42197;BMP280;27866;48.146;17.098;2023-07-08T11:32:25;99970.34;;;52.34
42197;BMP280;27866;48.146;17.098;2023-07-08T11:36:37;99967.22;;;52.36
42197;BMP280;27866;48.146;17.098;2023-07-08T11:41:13;99951.69;;;53.47
42197;BMP280;27866;48.146;17.098;2023-07-08T11:45:31;99948.19;;;52.12
42197;BMP280;27866;48.146;17.098;2023-07-08T11:49:43;99950.97;;;52.78
42197;BMP280;27866;48.146;17.098;2023-07-08T11:54:32;99947.25;;;51.50
42197;BMP280;27866;48.146;17.098;2023-07-08T12:03:18;99929.88;;;53.45
42197;BMP280;27866;48.146;17.098;2023-07-08T12:07:41;99939.16;;;53.06
42197;BMP280;27866;48.146;17.098;2023-07-08T12:12:14;99934.38;;;53.28
42197;BMP280;27866;48.146;17.098;2023-07-08T12:16:27;99941.88;;;52.77
42197;BMP280;27866;48.146;17.098;2023-07-08T12:20:40;99931.53;;;53.25
42197;BMP280;27866;48.146;17.098;2023-07-08T12:24:51;99913.13;;;53.99
42197;BMP280;27866;48.146;17.098;2023-07-08T12:29:03;99918.94;;;51.93
42197;BMP280;27866;48.146;17.098;2023-07-08T12:33:29;99908.53;;;51.32
42197;BMP280;27866;48.146;17.098;2023-07-08T12:37:41;99902.81;;;50.73
42197;BMP280;27866;48.146;17.098;2023-07-08T12:41:52;99900.22;;;50.65
42197;BMP280;27866;48.146;17.098;2023-07-08T12:46:04;99887.72;;;52.11
42197;BMP280;27866;48.146;17.098;2023-07-08T12:50:15;99888.91;;;50.55
42197;BMP280;27866;48.146;17.098;2023-07-08T12:54:28;99882.28;;;49.58
42197;BMP280;27866;48.146;17.098;2023-07-08T12:58:45;99887.56;;;50.34
42197;BMP280;27866;48.146;17.098;2023-07-08T13:03:22;99898.13;;;51.07
42197;BMP280;27866;48.146;17.098;2023-07-08T13:11:46;99889.41;;;48.16
42197;BMP280;27866;48.146;17.098;2023-07-08T13:15:58;99893.63;;;48.13
42197;BMP280;27866;48.146;17.098;2023-07-08T13:20:13;99890.28;;;47.77
42197;BMP280;27866;48.146;17.098;2023-07-08T13:24:30;99894.28;;;47.87
42197;BMP280;27866;48.146;17.098;2023-07-08T13:28:42;99890.09;;;49.56
42197;BMP280;27866;48.146;17.098;2023-07-08T13:32:59;99889.47;;;49.62
42197;BMP280;27866;48.146;17.098;2023-07-08T13:37:12;99881.84;;;49.44
42197;BMP280;27866;48.146;17.098;2023-07-08T13:41:26;99876.88;;;49.61
42197;BMP280;27866;48.146;17.098;2023-07-08T13:45:37;99874.88;;;48.97
42197;BMP280;27866;48.146;17.098;2023-07-08T13:50:19;99869.41;;;48.39
42197;BMP280;27866;48.146;17.098;2023-07-08T13:58:53;99873.50;;;47.27
42197;BMP280;27866;48.146;17.098;2023-07-08T14:03:11;99872.03;;;46.17
42197;BMP280;27866;48.146;17.098;2023-07-08T14:07:28;99873.91;;;45.89
42197;BMP280;27866;48.146;17.098;2023-07-08T14:11:40;99854.78;;;46.17
42197;BMP280;27866;48.146;17.098;2023-07-08T14:15:52;99850.47;;;47.83
42197;BMP280;27866;48.146;17.098;2023-07-08T14:20:11;99850.75;;;46.59
42197;BMP280;27866;48.146;17.098;2023-07-08T14:24:23;99845.06;;;47.43
42197;BMP280;27866;48.146;17.098;2023-07-08T14:28:34;99852.94;;;45.84
42197;BMP280;27866;48.146;17.098;2023-07-08T14:32:45;99848.34;;;44.40
42197;BMP280;27866;48.146;17.098;2023-07-08T14:36:56;99843.88;;;42.79
42197;BMP280;27866;48.146;17.098;2023-07-08T14:41:08;99845.06;;;40.61
42197;BMP280;27866;48.146;17.098;2023-07-08T14:45:19;99847.75;;;39.43
42197;BMP280;27866;48.146;17.098;2023-07-08T14:49:30;99843.19;;;38.49
42197;BMP280;27866;48.146;17.098;2023-07-08T14:53:44;99846.06;;;37.96
42197;BMP280;27866;48.146;17.098;2023-07-08T14:57:55;99847.75;;;37.58
42197;BMP280;27866;48.146;17.098;2023-07-08T15:02:20;99841.25;;;37.50
42197;BMP280;27866;48.146;17.098;2023-07-08T15:07:08;99832.84;;;36.88
42197;BMP280;27866;48.146;17.098;2023-07-08T15:11:19;99831.50;;;37.10
42197;BMP280;27866;48.146;17.098;2023-07-08T15:15:33;99826.63;;;37.07
42197;BMP280;27866;48.146;17.098;2023-07-08T15:19:48;99814.75;;;36.84
42197;BMP280;27866;48.146;17.098;2023-07-08T15:23:59;99817.38;;;36.50
42197;BMP280;27866;48.146;17.098;2023-07-08T15:28:59;99823.31;;;36.57
42197;BMP280;27866;48.146;17.098;2023-07-08T15:32:46;99815.16;;;36.52
42197;BMP280;27866;48.146;17.098;2023-07-08T15:36:57;99816.13;;;36.22
42197;BMP280;27866;48.146;17.098;2023-07-08T15:41:21;99813.06;;;35.54
42197;BMP280;27866;48.146;17.098;2023-07-08T15:45:34;99822.69;;;35.15
42197;BMP280;27866;48.146;17.098;2023-07-08T15:49:46;99810.81;;;34.86
42197;BMP280;27866;48.146;17.098;2023-07-08T15:53:57;99809.66;;;34.77
42197;BMP280;27866;48.146;17.098;2023-07-08T15:58:26;99815.59;;;34.79
42197;BMP280;27866;48.146;17.098;2023-07-08T16:02:38;99818.91;;;34.39
42197;BMP280;27866;48.146;17.098;2023-07-08T16:06:49;99804.50;;;34.50
42197;BMP280;27866;48.146;17.098;2023-07-08T16:11:02;99799.16;;;34.29
42197;BMP280;27866;48.146;17.098;2023-07-08T16:15:16;99801.59;;;34.31
42197;BMP280;27866;48.146;17.098;2023-07-08T16:19:28;99808.16;;;34.39
42197;BMP280;27866;48.146;17.098;2023-07-08T16:23:40;99798.34;;;34.29
42197;BMP280;27866;48.146;17.098;2023-07-08T16:27:51;99795.88;;;34.06
42197;BMP280;27866;48.146;17.098;2023-07-08T16:32:08;99810.09;;;34.02
42197;BMP280;27866;48.146;17.098;2023-07-08T16:36:21;99805.63;;;33.71
42197;BMP280;27866;48.146;17.098;2023-07-08T16:40:32;99802.75;;;33.77
42197;BMP280;27866;48.146;17.098;2023-07-08T16:44:44;99808.56;;;33.90
42197;BMP280;27866;48.146;17.098;2023-07-08T16:48:55;99795.94;;;33.70
42197;BMP280;27866;48.146;17.098;2023-07-08T16:53:13;99791.91;;;33.35
42197;BMP280;27866;48.146;17.098;2023-07-08T16:57:24;99791.50;;;33.27
42197;BMP280;27866;48.146;17.098;2023-07-08T17:01:37;99794.06;;;33.06
42197;BMP280;27866;48.146;17.098;2023-07-08T17:05:49;99785.31;;;33.11
42197;BMP280;27866;48.146;17.098;2023-07-08T17:10:00;99779.78;;;33.33
42197;BMP280;27866;48.146;17.098;2023-07-08T17:14:11;99786.44;;;33.46
42197;BMP280;27866;48.146;17.098;2023-07-08T17:18:22;99792.94;;;33.50
42197;BMP280;27866;48.146;17.098;2023-07-08T17:22:34;99788.25;;;33.25
42197;BMP280;27866;48.146;17.098;2023-07-08T17:26:45;99796.75;;;33.17
42197;BMP280;27866;48.146;17.098;2023-07-08T17:30:56;99792.41;;;33.16
42197;BMP280;27866;48.146;17.098;2023-07-08T17:35:17;99785.94;;;32.86
42197;BMP280;27866;48.146;17.098;2023-07-08T17:39:29;99795.03;;;32.42
42197;BMP280;27866;48.146;17.098;2023-07-08T17:43:40;99802.78;;;32.16
42197;BMP280;27866;48.146;17.098;2023-07-08T17:47:51;99792.69;;;32.07
42197;BMP280;27866;48.146;17.098;2023-07-08T17:52:02;99807.19;;;31.84
42197;BMP280;27866;48.146;17.098;2023-07-08T17:56:21;99805.03;;;31.70
42197;BMP280;27866;48.146;17.098;2023-07-08T18:00:34;99804.09;;;31.53
42197;BMP280;27866;48.146;17.098;2023-07-08T18:04:45;99805.13;;;31.30
42197;BMP280;27866;48.146;17.098;2023-07-08T18:08:56;99806.22;;;31.00
42197;BMP280;27866;48.146;17.098;2023-07-08T18:13:17;99814.44;;;30.77
42197;BMP280;27866;48.146;17.098;2023-07-08T18:17:29;99809.91;;;30.49
42197;BMP280;27866;48.146;17.098;2023-07-08T18:21:40;99810.91;;;30.37
42197;BMP280;27866;48.146;17.098;2023-07-08T18:25:51;99810.84;;;30.25
42197;BMP280;27866;48.146;17.098;2023-07-08T18:30:03;99812.72;;;30.08
42197;BMP280;27866;48.146;17.098;2023-07-08T18:34:14;99817.25;;;29.90
42197;BMP280;27866;48.146;17.098;2023-07-08T18:38:26;99821.09;;;29.76
42197;BMP280;27866;48.146;17.098;2023-07-08T18:42:37;99820.47;;;29.57
42197;BMP280;27866;48.146;17.098;2023-07-08T18:46:48;99832.22;;;29.32
42197;BMP280;27866;48.146;17.098;2023-07-08T18:50:59;99836.09;;;29.12
42197;BMP280;27866;48.146;17.098;2023-07-08T18:55:19;99835.41;;;28.93
42197;BMP280;27866;48.146;17.098;2023-07-08T18:59:32;99839.88;;;28.75
42197;BMP280;27866;48.146;17.098;2023-07-08T19:03:43;99848.34;;;28.53
42197;BMP280;27866;48.146;17.098;2023-07-08T19:07:55;99852.94;;;28.40
42197;BMP280;27866;48.146;17.098;2023-07-08T19:12:08;99861.19;;;28.26
42197;BMP280;27866;48.146;17.098;2023-07-08T19:16:19;99872.75;;;28.08
42197;BMP280;27866;48.146;17.098;2023-07-08T19:20:34;99872.78;;;27.95
42197;BMP280;27866;48.146;17.098;2023-07-08T19:24:45;99880.78;;;27.89
42197;BMP280;27866;48.146;17.098;2023-07-08T19:28:59;99885.94;;;27.78
42197;BMP280;27866;48.146;17.098;2023-07-08T19:33:13;99883.50;;;27.70
42197;BMP280;27866;48.146;17.098;2023-07-08T19:37:24;99894.38;;;27.56
42197;BMP280;27866;48.146;17.098;2023-07-08T19:41:36;99901.31;;;27.51
42197;BMP280;27866;48.146;17.098;2023-07-08T19:45:47;99890.72;;;27.45
42197;BMP280;27866;48.146;17.098;2023-07-08T19:49:58;99887.63;;;27.35
42197;BMP280;27866;48.146;17.098;2023-07-08T19:54:10;99885.16;;;27.27
42197;BMP280;27866;48.146;17.098;2023-07-08T19:58:21;99904.38;;;27.23
42197;BMP280;27866;48.146;17.098;2023-07-08T20:02:32;99903.56;;;27.16
42197;BMP280;27866;48.146;17.098;2023-07-08T20:06:43;99911.16;;;27.13
42197;BMP280;27866;48.146;17.098;2023-07-08T20:10:54;99907.84;;;27.04
42197;BMP280;27866;48.146;17.098;2023-07-08T20:15:06;99910.09;;;27.01
42197;BMP280;27866;48.146;17.098;2023-07-08T20:19:19;99917.44;;;26.93
42197;BMP280;27866;48.146;17.098;2023-07-08T20:23:31;99923.94;;;26.84
42197;BMP280;27866;48.146;17.098;2023-07-08T20:27:48;99928.25;;;26.79
42197;BMP280;27866;48.146;17.098;2023-07-08T20:31:59;99923.09;;;26.71
42197;BMP280;27866;48.146;17.098;2023-07-08T20:36:14;99926.34;;;26.67
42197;BMP280;27866;48.146;17.098;2023-07-08T20:40:27;99937.16;;;26.59
42197;BMP280;27866;48.146;17.098;2023-07-08T20:44:38;99928.75;;;26.49
42197;BMP280;27866;48.146;17.098;2023-07-08T20:48:57;99934.47;;;26.46
42197;BMP280;27866;48.146;17.098;2023-07-08T20:53:12;99936.88;;;26.42
42197;BMP280;27866;48.146;17.098;2023-07-08T20:57:24;99937.66;;;26.36
42197;BMP280;27866;48.146;17.098;2023-07-08T21:01:35;99942.56;;;26.32
42197;BMP280;27866;48.146;17.098;2023-07-08T21:05:52;99941.31;;;26.29
42197;BMP280;27866;48.146;17.098;2023-07-08T21:10:04;99938.41;;;26.24
42197;BMP280;27866;48.146;17.098;2023-07-08T21:14:15;99935.75;;;26.24
42197;BMP280;27866;48.146;17.098;2023-07-08T21:18:29;99940.81;;;26.13
42197;BMP280;27866;48.146;17.098;2023-07-08T21:22:42;99935.47;;;26.06
42197;BMP280;27866;48.146;17.098;2023-07-08T21:26:53;99941.75;;;25.99
42197;BMP280;27866;48.146;17.098;2023-07-08T21:31:04;99946.63;;;25.96
42197;BMP280;27866;48.146;17.098;2023-07-08T21:35:15;99944.31;;;25.86
42197;BMP280;27866;48.146;17.098;2023-07-08T21:39:28;99942.25;;;25.82
42197;BMP280;27866;48.146;17.098;2023-07-08T21:43:40;99939.75;;;25.74
42197;BMP280;27866;48.146;17.098;2023-07-08T21:47:51;99951.34;;;25.67
42197;BMP280;27866;48.146;17.098;2023-07-08T21:52:02;99949.22;;;25.63
42197;BMP280;27866;48.146;17.098;2023-07-08T21:56:14;99948.59;;;25.61
42197;BMP280;27866;48.146;17.098;2023-07-08T22:00:25;99946.91;;;25.54
42197;BMP280;27866;48.146;17.098;2023-07-08T22:04:52;99951.31;;;25.47
42197;BMP280;27866;48.146;17.098;2023-07-08T22:09:04;99947.63;;;25.41
42197;BMP280;27866;48.146;17.098;2023-07-08T22:17:35;99950.59;;;25.32
42197;BMP280;27866;48.146;17.098;2023-07-08T22:21:46;99951.16;;;25.28
42197;BMP280;27866;48.146;17.098;2023-07-08T22:25:57;99948.06;;;25.25
42197;BMP280;27866;48.146;17.098;2023-07-08T22:30:08;99945.75;;;25.15
42197;BMP280;27866;48.146;17.098;2023-07-08T22:34:19;99952.63;;;25.10
42197;BMP280;27866;48.146;17.098;2023-07-08T22:38:31;99953.38;;;25.04
42197;BMP280;27866;48.146;17.098;2023-07-08T22:42:42;99950.09;;;25.02
42197;BMP280;27866;48.146;17.098;2023-07-08T22:46:54;99950.44;;;24.99
42197;BMP280;27866;48.146;17.098;2023-07-08T22:51:05;99947.56;;;24.95
42197;BMP280;27866;48.146;17.098;2023-07-08T22:55:21;99954.78;;;24.86
42197;BMP280;27866;48.146;17.098;2023-07-08T22:59:33;99940.13;;;24.84
42197;BMP280;27866;48.146;17.098;2023-07-08T23:03:45;99958.03;;;24.82
42197;BMP280;27866;48.146;17.098;2023-07-08T23:07:56;99953.09;;;24.79
42197;BMP280;27866;48.146;17.098;2023-07-08T23:12:08;99965.69;;;24.77
42197;BMP280;27866;48.146;17.098;2023-07-08T23:16:27;99960.16;;;24.72
42197;BMP280;27866;48.146;17.098;2023-07-08T23:20:38;99969.09;;;24.71
42197;BMP280;27866;48.146;17.098;2023-07-08T23:24:49;99966.44;;;24.71
42197;BMP280;27866;48.146;17.098;2023-07-08T23:29:01;99961.88;;;24.66
42197;BMP280;27866;48.146;17.098;2023-07-08T23:33:15;99963.28;;;24.62
42197;BMP280;27866;48.146;17.098;2023-07-08T23:37:27;99961.25;;;24.64
42197;BMP280;27866;48.146;17.098;2023-07-08T23:41:40;99958.38;;;24.59
42197;BMP280;27866;48.146;17.098;2023-07-08T23:45:54;99959.75;;;24.55
42197;BMP280;27866;48.146;17.098;2023-07-08T23:50:05;99960.56;;;24.55
42197;BMP280;27866;48.146;17.098;2023-07-08T23:54:25;99959.34;;;24.58
42197;BMP280;27866;48.146;17.098;2023-07-08T23:58:36;99959.75;;;24.55
